sensor_id;sensor_type;location;lat;lon;timestamp;pressure;altitude;pressure_sealevel;temperature;humidity
71151;BME280;59071;42.138;24.768;2024-03-07T00:00:20;99676.19;;;7.86;90.65
71151;BME280;59071;42.138;24.768;2024-03-07T00:02:50;99674.28;;;7.80;91.40
71151;BME280;59071;42.138;24.768;2024-03-07T00:05:18;99661.94;;;7.87;91.20
71151;BME280;59071;42.138;24.768;2024-03-07T00:07:44;99662.00;;;7.94;91.59
71151;BME280;59071;42.138;24.768;2024-03-07T00:10:10;99663.56;;;8.31;90.09
71151;BME280;59071;42.138;24.768;2024-03-07T00:12:37;99651.47;;;8.00;90.80
71151;BME280;59071;42.138;24.768;2024-03-07T00:15:07;99662.84;;;7.94;92.34
71151;BME280;59071;42.138;24.768;2024-03-07T00:17:32;99654.13;;;7.79;92.09
71151;BME280;59071;42.138;24.768;2024-03-07T00:19:58;99656.53;;;7.59;93.59
71151;BME280;59071;42.138;24.768;2024-03-07T00:22:24;99665.53;;;7.79;93.00
71151;BME280;59071;42.138;24.768;2024-03-07T00:24:53;99663.00;;;7.71;93.92
71151;BME280;59071;42.138;24.768;2024-03-07T00:27:18;99655.13;;;7.99;92.80
71151;BME280;59071;42.138;24.768;2024-03-07T00:29:46;99652.09;;;8.02;92.52
71151;BME280;59071;42.138;24.768;2024-03-07T00:32:18;99656.19;;;8.05;91.64
71151;BME280;59071;42.138;24.768;2024-03-07T00:34:44;99661.13;;;7.87;92.46
71151;BME280;59071;42.138;24.768;2024-03-07T00:37:09;99660.50;;;7.85;92.57
71151;BME280;59071;42.138;24.768;2024-03-07T00:39:34;99665.84;;;7.91;92.03
71151;BME280;59071;42.138;24.768;2024-03-07T00:42:00;99662.84;;;7.94;91.66
71151;BME280;59071;42.138;24.768;2024-03-07T00:44:25;99659.19;;;8.17;91.00
71151;BME280;59071;42.138;24.768;2024-03-07T00:46:51;99662.06;;;7.79;92.13
71151;BME280;59071;42.138;24.768;2024-03-07T00:49:17;99655.47;;;7.75;92.19
71151;BME280;59071;42.138;24.768;2024-03-07T00:51:42;99656.94;;;7.77;92.68
71151;BME280;59071;42.138;24.768;2024-03-07T00:54:09;99648.38;;;7.97;91.31
71151;BME280;59071;42.138;24.768;2024-03-07T00:56:38;99655.06;;;7.71;92.21
71151;BME280;59071;42.138;24.768;2024-03-07T00:59:03;99640.22;;;7.77;91.79
71151;BME280;59071;42.138;24.768;2024-03-07T01:01:29;99650.38;;;7.73;92.25
71151;BME280;59071;42.138;24.768;2024-03-07T01:03:54;99640.97;;;7.71;91.55
71151;BME280;59071;42.138;24.768;2024-03-07T01:06:19;99642.31;;;7.81;91.34
71151;BME280;59071;42.138;24.768;2024-03-07T01:08:45;99653.22;;;7.72;91.66
71151;BME280;59071;42.138;24.768;2024-03-07T01:11:10;99650.16;;;7.75;91.02
71151;BME280;59071;42.138;24.768;2024-03-07T01:13:38;99651.47;;;7.79;90.93
71151;BME280;59071;42.138;24.768;2024-03-07T01:16:04;99644.06;;;7.74;90.13
71151;BME280;59071;42.138;24.768;2024-03-07T01:18:29;99643.00;;;7.54;91.43
71151;BME280;59071;42.138;24.768;2024-03-07T01:20:56;99651.97;;;7.89;90.05
71151;BME280;59071;42.138;24.768;2024-03-07T01:23:22;99647.38;;;7.98;88.67
71151;BME280;59071;42.138;24.768;2024-03-07T01:25:47;99645.53;;;7.98;88.24
71151;BME280;59071;42.138;24.768;2024-03-07T01:28:13;99646.38;;;7.62;89.54
71151;BME280;59071;42.138;24.768;2024-03-07T01:30:40;99646.09;;;7.57;89.45
71151;BME280;59071;42.138;24.768;2024-03-07T01:33:05;99649.47;;;7.30;90.73
71151;BME280;59071;42.138;24.768;2024-03-07T01:35:31;99654.91;;;7.58;89.43
71151;BME280;59071;42.138;24.768;2024-03-07T01:37:56;99649.81;;;7.78;88.42
71151;BME280;59071;42.138;24.768;2024-03-07T01:40:22;99639.66;;;7.45;89.62
71151;BME280;59071;42.138;24.768;2024-03-07T01:42:49;99658.03;;;7.83;88.08
71151;BME280;59071;42.138;24.768;2024-03-07T01:45:16;99655.41;;;7.68;88.31
71151;BME280;59071;42.138;24.768;2024-03-07T01:47:41;99660.72;;;7.53;89.50
71151;BME280;59071;42.138;24.768;2024-03-07T01:50:07;99649.38;;;7.59;88.05
71151;BME280;59071;42.138;24.768;2024-03-07T01:52:33;99643.34;;;8.02;86.83
71151;BME280;59071;42.138;24.768;2024-03-07T01:54:58;99640.25;;;7.98;85.80
71151;BME280;59071;42.138;24.768;2024-03-07T01:57:24;99651.00;;;7.75;86.83
71151;BME280;59071;42.138;24.768;2024-03-07T01:59:51;99650.69;;;7.63;87.42
71151;BME280;59071;42.138;24.768;2024-03-07T02:02:16;99639.88;;;7.65;87.05
71151;BME280;59071;42.138;24.768;2024-03-07T02:04:45;99643.09;;;7.60;88.03
71151;BME280;59071;42.138;24.768;2024-03-07T02:07:10;99654.47;;;7.76;87.62
71151;BME280;59071;42.138;24.768;2024-03-07T02:09:38;99654.97;;;7.64;87.00
71151;BME280;59071;42.138;24.768;2024-03-07T02:12:04;99650.72;;;7.34;88.42
71151;BME280;59071;42.138;24.768;2024-03-07T02:14:29;99644.97;;;7.30;88.88
71151;BME280;59071;42.138;24.768;2024-03-07T02:16:55;99653.59;;;7.54;88.56
71151;BME280;59071;42.138;24.768;2024-03-07T02:19:24;99649.13;;;7.69;87.00
71151;BME280;59071;42.138;24.768;2024-03-07T02:21:50;99654.66;;;7.38;87.77
71151;BME280;59071;42.138;24.768;2024-03-07T02:24:15;99655.22;;;7.03;89.65
71151;BME280;59071;42.138;24.768;2024-03-07T02:26:41;99639.78;;;7.22;88.20
71151;BME280;59071;42.138;24.768;2024-03-07T02:29:06;99662.06;;;7.28;88.66
71151;BME280;59071;42.138;24.768;2024-03-07T02:31:32;99657.41;;;7.15;89.37
71151;BME280;59071;42.138;24.768;2024-03-07T02:34:02;99650.28;;;7.00;90.12
71151;BME280;59071;42.138;24.768;2024-03-07T02:36:28;99648.66;;;7.29;88.59
71151;BME280;59071;42.138;24.768;2024-03-07T02:38:53;99635.03;;;7.17;89.03
71151;BME280;59071;42.138;24.768;2024-03-07T02:41:19;99630.94;;;6.85;91.16
71151;BME280;59071;42.138;24.768;2024-03-07T02:43:45;99630.31;;;7.13;90.51
71151;BME280;59071;42.138;24.768;2024-03-07T02:46:10;99637.78;;;7.24;88.77
71151;BME280;59071;42.138;24.768;2024-03-07T02:48:37;99651.94;;;7.31;88.61
71151;BME280;59071;42.138;24.768;2024-03-07T02:51:04;99640.50;;;7.31;88.33
71151;BME280;59071;42.138;24.768;2024-03-07T02:53:31;99649.81;;;7.41;87.80
71151;BME280;59071;42.138;24.768;2024-03-07T02:55:57;99654.75;;;7.15;88.43
71151;BME280;59071;42.138;24.768;2024-03-07T02:58:23;99652.28;;;7.28;88.23
71151;BME280;59071;42.138;24.768;2024-03-07T03:00:57;99648.56;;;6.78;89.56
71151;BME280;59071;42.138;24.768;2024-03-07T03:03:22;99630.22;;;6.91;89.37
71151;BME280;59071;42.138;24.768;2024-03-07T03:05:48;99646.81;;;7.00;88.87
71151;BME280;59071;42.138;24.768;2024-03-07T03:08:13;99649.09;;;7.03;88.13
71151;BME280;59071;42.138;24.768;2024-03-07T03:10:39;99642.72;;;6.97;89.25
71151;BME280;59071;42.138;24.768;2024-03-07T03:13:05;99637.44;;;6.97;88.06
71151;BME280;59071;42.138;24.768;2024-03-07T03:15:30;99646.28;;;7.04;87.68
71151;BME280;59071;42.138;24.768;2024-03-07T03:17:57;99652.38;;;7.05;87.31
71151;BME280;59071;42.138;24.768;2024-03-07T03:20:26;99647.63;;;7.30;86.31
71151;BME280;59071;42.138;24.768;2024-03-07T03:22:54;99641.97;;;7.03;87.01
71151;BME280;59071;42.138;24.768;2024-03-07T03:25:20;99644.97;;;7.15;86.82
71151;BME280;59071;42.138;24.768;2024-03-07T03:27:49;99652.84;;;7.09;86.33
71151;BME280;59071;42.138;24.768;2024-03-07T03:30:15;99653.72;;;6.71;88.52
71151;BME280;59071;42.138;24.768;2024-03-07T03:32:44;99654.56;;;7.01;87.09
71151;BME280;59071;42.138;24.768;2024-03-07T03:35:10;99639.50;;;6.87;87.74
71151;BME280;59071;42.138;24.768;2024-03-07T03:37:47;99639.78;;;6.92;87.40
71151;BME280;59071;42.138;24.768;2024-03-07T03:40:12;99641.25;;;7.10;86.84
71151;BME280;59071;42.138;24.768;2024-03-07T03:42:39;99641.69;;;7.28;85.41
71151;BME280;59071;42.138;24.768;2024-03-07T03:45:05;99646.81;;;7.30;85.13
71151;BME280;59071;42.138;24.768;2024-03-07T03:47:38;99651.28;;;7.29;85.45
71151;BME280;59071;42.138;24.768;2024-03-07T03:50:04;99650.81;;;6.81;86.74
71151;BME280;59071;42.138;24.768;2024-03-07T03:52:30;99648.25;;;7.02;86.54
71151;BME280;59071;42.138;24.768;2024-03-07T03:54:56;99648.25;;;7.02;86.29
71151;BME280;59071;42.138;24.768;2024-03-07T03:57:22;99657.56;;;6.98;86.34
71151;BME280;59071;42.138;24.768;2024-03-07T03:59:48;99642.50;;;7.29;85.18
71151;BME280;59071;42.138;24.768;2024-03-07T04:02:13;99646.25;;;7.19;85.11
71151;BME280;59071;42.138;24.768;2024-03-07T04:04:39;99644.63;;;7.18;85.81
71151;BME280;59071;42.138;24.768;2024-03-07T04:07:05;99654.19;;;7.19;85.71
71151;BME280;59071;42.138;24.768;2024-03-07T04:09:30;99650.84;;;7.11;85.38
71151;BME280;59071;42.138;24.768;2024-03-07T04:11:56;99650.72;;;7.04;86.50
71151;BME280;59071;42.138;24.768;2024-03-07T04:14:23;99654.75;;;7.15;85.37
71151;BME280;59071;42.138;24.768;2024-03-07T04:16:48;99642.97;;;7.32;84.92
71151;BME280;59071;42.138;24.768;2024-03-07T04:19:13;99649.75;;;7.20;85.12
71151;BME280;59071;42.138;24.768;2024-03-07T04:21:39;99650.44;;;7.29;85.01
71151;BME280;59071;42.138;24.768;2024-03-07T04:24:05;99641.22;;;7.39;84.59
71151;BME280;59071;42.138;24.768;2024-03-07T04:26:30;99651.34;;;7.87;82.71
71151;BME280;59071;42.138;24.768;2024-03-07T04:28:56;99652.34;;;7.50;83.96
71151;BME280;59071;42.138;24.768;2024-03-07T04:31:23;99649.69;;;7.50;84.37
71151;BME280;59071;42.138;24.768;2024-03-07T04:33:48;99650.84;;;7.77;82.93
71151;BME280;59071;42.138;24.768;2024-03-07T04:36:14;99649.66;;;7.64;82.90
71151;BME280;59071;42.138;24.768;2024-03-07T04:38:39;99643.50;;;7.42;84.35
71151;BME280;59071;42.138;24.768;2024-03-07T04:41:11;99654.13;;;6.98;86.70
71151;BME280;59071;42.138;24.768;2024-03-07T04:43:36;99656.31;;;6.94;87.24
71151;BME280;59071;42.138;24.768;2024-03-07T04:46:02;99653.38;;;7.19;86.68
71151;BME280;59071;42.138;24.768;2024-03-07T04:48:27;99642.06;;;7.25;86.84
71151;BME280;59071;42.138;24.768;2024-03-07T04:50:53;99652.63;;;7.40;86.10
71151;BME280;59071;42.138;24.768;2024-03-07T04:53:18;99647.44;;;7.02;86.84
71151;BME280;59071;42.138;24.768;2024-03-07T04:55:44;99661.06;;;6.99;87.59
71151;BME280;59071;42.138;24.768;2024-03-07T04:58:09;99664.31;;;7.16;87.90
71151;BME280;59071;42.138;24.768;2024-03-07T05:00:34;99669.91;;;6.91;88.45
71151;BME280;59071;42.138;24.768;2024-03-07T05:03:00;99663.59;;;6.92;89.14
71151;BME280;59071;42.138;24.768;2024-03-07T05:05:25;99662.97;;;7.05;88.35
71151;BME280;59071;42.138;24.768;2024-03-07T05:07:52;99649.09;;;7.03;88.22
71151;BME280;59071;42.138;24.768;2024-03-07T05:10:17;99662.16;;;7.04;89.37
71151;BME280;59071;42.138;24.768;2024-03-07T05:12:43;99673.84;;;6.95;90.41
71151;BME280;59071;42.138;24.768;2024-03-07T05:15:08;99671.28;;;7.17;89.96
71151;BME280;59071;42.138;24.768;2024-03-07T05:17:37;99666.44;;;7.35;88.87
71151;BME280;59071;42.138;24.768;2024-03-07T05:20:05;99676.63;;;7.38;88.83
71151;BME280;59071;42.138;24.768;2024-03-07T05:22:41;99674.91;;;7.31;88.60
71151;BME280;59071;42.138;24.768;2024-03-07T05:25:12;99659.31;;;7.06;89.96
71151;BME280;59071;42.138;24.768;2024-03-07T05:27:38;99670.53;;;7.08;90.14
71151;BME280;59071;42.138;24.768;2024-03-07T05:30:04;99673.19;;;7.23;90.53
71151;BME280;59071;42.138;24.768;2024-03-07T05:32:37;99678.66;;;7.21;91.63
71151;BME280;59071;42.138;24.768;2024-03-07T05:35:02;99674.38;;;7.20;91.80
71151;BME280;59071;42.138;24.768;2024-03-07T05:37:28;99686.53;;;7.15;91.66
71151;BME280;59071;42.138;24.768;2024-03-07T05:39:54;99677.84;;;7.21;90.23
71151;BME280;59071;42.138;24.768;2024-03-07T05:42:19;99684.16;;;7.20;90.64
71151;BME280;59071;42.138;24.768;2024-03-07T05:44:45;99685.88;;;7.13;90.61
71151;BME280;59071;42.138;24.768;2024-03-07T05:47:11;99687.25;;;7.09;91.24
71151;BME280;59071;42.138;24.768;2024-03-07T05:49:38;99689.34;;;7.43;89.54
71151;BME280;59071;42.138;24.768;2024-03-07T05:52:04;99693.53;;;7.37;93.21
71151;BME280;59071;42.138;24.768;2024-03-07T05:54:31;99707.06;;;7.42;90.43
71151;BME280;59071;42.138;24.768;2024-03-07T05:56:57;99718.19;;;7.53;89.75
71151;BME280;59071;42.138;24.768;2024-03-07T05:59:22;99715.53;;;7.68;89.31
71151;BME280;59071;42.138;24.768;2024-03-07T06:01:48;99708.66;;;8.31;86.73
71151;BME280;59071;42.138;24.768;2024-03-07T06:04:14;99710.63;;;7.86;87.24
71151;BME280;59071;42.138;24.768;2024-03-07T06:06:40;99715.72;;;7.36;89.98
71151;BME280;59071;42.138;24.768;2024-03-07T06:09:08;99720.72;;;7.61;89.59
71151;BME280;59071;42.138;24.768;2024-03-07T06:14:01;99712.94;;;7.59;89.40
71151;BME280;59071;42.138;24.768;2024-03-07T06:16:29;99735.44;;;7.34;90.42
71151;BME280;59071;42.138;24.768;2024-03-07T06:18:58;99737.06;;;7.50;90.81
71151;BME280;59071;42.138;24.768;2024-03-07T06:21:23;99738.72;;;7.66;89.90
71151;BME280;59071;42.138;24.768;2024-03-07T06:23:48;99732.19;;;7.98;97.37
71151;BME280;59071;42.138;24.768;2024-03-07T06:26:20;99730.06;;;7.93;89.52
71151;BME280;59071;42.138;24.768;2024-03-07T06:29:02;99731.13;;;7.77;90.76
71151;BME280;59071;42.138;24.768;2024-03-07T06:31:28;99726.81;;;7.61;92.24
71151;BME280;59071;42.138;24.768;2024-03-07T06:33:53;99720.72;;;7.61;92.17
71151;BME280;59071;42.138;24.768;2024-03-07T06:36:18;99731.53;;;7.44;93.01
71151;BME280;59071;42.138;24.768;2024-03-07T06:38:44;99727.31;;;7.35;92.83
71151;BME280;59071;42.138;24.768;2024-03-07T06:41:09;99727.50;;;7.19;94.75
71151;BME280;59071;42.138;24.768;2024-03-07T06:43:35;99731.59;;;7.51;94.00
71151;BME280;59071;42.138;24.768;2024-03-07T06:46:01;99724.75;;;7.42;94.34
71151;BME280;59071;42.138;24.768;2024-03-07T06:48:26;99725.94;;;7.54;93.96
71151;BME280;59071;42.138;24.768;2024-03-07T06:50:51;99731.31;;;7.61;93.29
71151;BME280;59071;42.138;24.768;2024-03-07T06:53:17;99721.44;;;7.85;91.83
71151;BME280;59071;42.138;24.768;2024-03-07T06:55:43;99729.06;;;7.43;93.46
71151;BME280;59071;42.138;24.768;2024-03-07T06:58:08;99727.41;;;7.93;91.91
71151;BME280;59071;42.138;24.768;2024-03-07T07:00:35;99735.16;;;7.73;92.03
71151;BME280;59071;42.138;24.768;2024-03-07T07:03:01;99738.63;;;7.74;91.90
71151;BME280;59071;42.138;24.768;2024-03-07T07:05:30;99736.59;;;7.61;93.29
71151;BME280;59071;42.138;24.768;2024-03-07T07:07:55;99733.59;;;7.79;92.99
71151;BME280;59071;42.138;24.768;2024-03-07T07:10:20;99746.19;;;7.77;92.56
71151;BME280;59071;42.138;24.768;2024-03-07T07:12:49;99741.72;;;7.77;93.79
71151;BME280;59071;42.138;24.768;2024-03-07T07:15:18;99740.91;;;7.77;91.56
71151;BME280;59071;42.138;24.768;2024-03-07T07:17:46;99728.59;;;7.69;91.03
71151;BME280;59071;42.138;24.768;2024-03-07T07:20:12;99742.50;;;7.93;90.07
71151;BME280;59071;42.138;24.768;2024-03-07T07:22:43;99736.28;;;8.00;89.42
71151;BME280;59071;42.138;24.768;2024-03-07T07:25:10;99733.50;;;7.72;91.63
71151;BME280;59071;42.138;24.768;2024-03-07T07:27:45;99734.44;;;8.01;90.20
71151;BME280;59071;42.138;24.768;2024-03-07T07:30:15;99739.91;;;7.99;88.50
71151;BME280;59071;42.138;24.768;2024-03-07T07:32:43;99742.84;;;8.05;88.08
71151;BME280;59071;42.138;24.768;2024-03-07T07:35:09;99748.06;;;7.98;88.18
71151;BME280;59071;42.138;24.768;2024-03-07T07:37:47;99750.88;;;8.11;87.53
71151;BME280;59071;42.138;24.768;2024-03-07T07:40:15;99751.59;;;8.05;88.02
71151;BME280;59071;42.138;24.768;2024-03-07T07:42:43;99767.50;;;8.05;87.96
71151;BME280;59071;42.138;24.768;2024-03-07T07:45:10;99768.81;;;8.09;87.04
71151;BME280;59071;42.138;24.768;2024-03-07T07:47:40;99762.53;;;8.75;84.84
71151;BME280;59071;42.138;24.768;2024-03-07T07:50:20;99765.38;;;8.73;83.95
71151;BME280;59071;42.138;24.768;2024-03-07T07:52:50;99760.28;;;8.50;84.28
71151;BME280;59071;42.138;24.768;2024-03-07T07:55:21;99760.91;;;8.52;84.78
71151;BME280;59071;42.138;24.768;2024-03-07T07:57:51;99764.59;;;8.51;84.49
71151;BME280;59071;42.138;24.768;2024-03-07T08:00:21;99761.38;;;8.05;86.48
71151;BME280;59071;42.138;24.768;2024-03-07T08:03:00;99769.13;;;8.21;85.75
71151;BME280;59071;42.138;24.768;2024-03-07T08:05:36;99763.59;;;8.01;86.67
71151;BME280;59071;42.138;24.768;2024-03-07T08:08:04;99761.00;;;8.22;85.89
71151;BME280;59071;42.138;24.768;2024-03-07T08:10:32;99764.59;;;8.15;85.72
71151;BME280;59071;42.138;24.768;2024-03-07T08:12:58;99778.81;;;8.29;85.61
71151;BME280;59071;42.138;24.768;2024-03-07T08:15:25;99780.66;;;8.13;86.12
71151;BME280;59071;42.138;24.768;2024-03-07T08:17:51;99777.19;;;8.13;86.96
71151;BME280;59071;42.138;24.768;2024-03-07T08:20:19;99782.88;;;7.95;87.61
71151;BME280;59071;42.138;24.768;2024-03-07T08:22:49;99777.69;;;7.87;87.65
71151;BME280;59071;42.138;24.768;2024-03-07T08:25:19;99787.91;;;8.05;88.17
71151;BME280;59071;42.138;24.768;2024-03-07T08:27:48;99768.03;;;7.79;88.43
71151;BME280;59071;42.138;24.768;2024-03-07T08:30:15;99789.94;;;8.24;87.24
71151;BME280;59071;42.138;24.768;2024-03-07T08:32:41;99784.16;;;8.35;86.73
71151;BME280;59071;42.138;24.768;2024-03-07T08:35:08;99794.38;;;8.75;85.12
71151;BME280;59071;42.138;24.768;2024-03-07T08:37:40;99792.19;;;8.57;84.97
71151;BME280;59071;42.138;24.768;2024-03-07T08:40:07;99792.94;;;8.72;84.93
71151;BME280;59071;42.138;24.768;2024-03-07T08:42:35;99794.94;;;8.49;85.86
71151;BME280;59071;42.138;24.768;2024-03-07T08:45:02;99796.50;;;8.43;86.02
71151;BME280;59071;42.138;24.768;2024-03-07T08:47:33;99794.38;;;8.53;86.40
71151;BME280;59071;42.138;24.768;2024-03-07T08:49:59;99800.00;;;8.65;85.54
71151;BME280;59071;42.138;24.768;2024-03-07T08:52:25;99806.19;;;8.51;85.83
71151;BME280;59071;42.138;24.768;2024-03-07T08:54:50;99801.44;;;8.68;85.78
71151;BME280;59071;42.138;24.768;2024-03-07T08:57:16;99801.97;;;8.78;85.76
71151;BME280;59071;42.138;24.768;2024-03-07T08:59:45;99800.19;;;8.64;85.34
71151;BME280;59071;42.138;24.768;2024-03-07T09:02:10;99798.13;;;8.59;85.44
71151;BME280;59071;42.138;24.768;2024-03-07T09:04:39;99808.72;;;8.22;88.07
71151;BME280;59071;42.138;24.768;2024-03-07T09:07:05;99797.13;;;8.45;86.07
71151;BME280;59071;42.138;24.768;2024-03-07T09:09:31;99811.13;;;8.54;86.10
71151;BME280;59071;42.138;24.768;2024-03-07T09:11:57;99809.06;;;8.34;86.14
71151;BME280;59071;42.138;24.768;2024-03-07T09:14:22;99806.25;;;8.57;85.55
71151;BME280;59071;42.138;24.768;2024-03-07T09:16:48;99819.59;;;8.86;84.01
71151;BME280;59071;42.138;24.768;2024-03-07T09:19:14;99811.13;;;8.97;83.40
71151;BME280;59071;42.138;24.768;2024-03-07T09:21:45;99817.88;;;8.78;83.87
71151;BME280;59071;42.138;24.768;2024-03-07T09:24:11;99823.75;;;8.73;84.88
71151;BME280;59071;42.138;24.768;2024-03-07T09:26:36;99816.22;;;8.77;84.59
71151;BME280;59071;42.138;24.768;2024-03-07T09:29:02;99815.13;;;9.14;83.30
71151;BME280;59071;42.138;24.768;2024-03-07T09:31:33;99812.97;;;9.25;82.38
71151;BME280;59071;42.138;24.768;2024-03-07T09:33:59;99817.59;;;9.16;82.25
71151;BME280;59071;42.138;24.768;2024-03-07T09:36:25;99824.25;;;9.05;82.61
71151;BME280;59071;42.138;24.768;2024-03-07T09:38:50;99819.63;;;9.14;83.22
71151;BME280;59071;42.138;24.768;2024-03-07T09:41:16;99812.78;;;9.26;82.73
71151;BME280;59071;42.138;24.768;2024-03-07T09:43:47;99835.25;;;9.30;81.56
71151;BME280;59071;42.138;24.768;2024-03-07T09:46:14;99829.06;;;9.45;81.45
71151;BME280;59071;42.138;24.768;2024-03-07T09:48:40;99836.34;;;9.36;82.23
71151;BME280;59071;42.138;24.768;2024-03-07T09:51:06;99835.63;;;9.49;81.42
71151;BME280;59071;42.138;24.768;2024-03-07T09:53:37;99844.03;;;9.52;80.26
71151;BME280;59071;42.138;24.768;2024-03-07T09:56:04;99845.59;;;9.75;79.70
71151;BME280;59071;42.138;24.768;2024-03-07T09:58:32;99847.19;;;9.69;79.43
71151;BME280;59071;42.138;24.768;2024-03-07T10:01:02;99848.72;;;9.57;80.50
71151;BME280;59071;42.138;24.768;2024-03-07T10:03:29;99849.53;;;9.86;79.47
71151;BME280;59071;42.138;24.768;2024-03-07T10:05:55;99848.03;;;9.76;79.20
71151;BME280;59071;42.138;24.768;2024-03-07T10:08:22;99838.53;;;9.61;80.17
71151;BME280;59071;42.138;24.768;2024-03-07T10:10:49;99842.53;;;9.43;81.03
71151;BME280;59071;42.138;24.768;2024-03-07T10:13:15;99846.00;;;9.44;81.00
71151;BME280;59071;42.138;24.768;2024-03-07T10:15:43;99838.53;;;9.54;81.07
71151;BME280;59071;42.138;24.768;2024-03-07T10:18:09;99840.06;;;9.42;81.28
71151;BME280;59071;42.138;24.768;2024-03-07T10:20:39;99846.47;;;9.26;81.97
71151;BME280;59071;42.138;24.768;2024-03-07T10:23:04;99850.59;;;8.85;83.82
71151;BME280;59071;42.138;24.768;2024-03-07T10:25:33;99851.16;;;9.02;83.71
71151;BME280;59071;42.138;24.768;2024-03-07T10:27:59;99856.28;;;9.04;83.30
71151;BME280;59071;42.138;24.768;2024-03-07T10:30:26;99845.41;;;9.20;82.07
71151;BME280;59071;42.138;24.768;2024-03-07T10:32:54;99854.72;;;9.37;82.21
71151;BME280;59071;42.138;24.768;2024-03-07T10:35:21;99844.78;;;9.18;83.45
71151;BME280;59071;42.138;24.768;2024-03-07T10:37:53;99847.88;;;9.22;83.83
71151;BME280;59071;42.138;24.768;2024-03-07T10:40:20;99860.53;;;8.98;85.14
71151;BME280;59071;42.138;24.768;2024-03-07T10:42:47;99856.75;;;8.86;87.15
71151;BME280;59071;42.138;24.768;2024-03-07T10:45:17;99855.22;;;8.76;86.99
71151;BME280;59071;42.138;24.768;2024-03-07T10:47:43;99857.78;;;8.70;88.05
71151;BME280;59071;42.138;24.768;2024-03-07T10:50:30;99856.16;;;8.90;87.21
71151;BME280;59071;42.138;24.768;2024-03-07T10:53:03;99857.56;;;8.86;87.19
71151;BME280;59071;42.138;24.768;2024-03-07T10:58:40;99850.84;;;8.90;88.29
71151;BME280;59071;42.138;24.768;2024-03-07T11:01:10;99850.69;;;8.70;89.84
71151;BME280;59071;42.138;24.768;2024-03-07T11:03:39;99847.03;;;8.56;90.20
71151;BME280;59071;42.138;24.768;2024-03-07T11:06:06;99856.56;;;8.51;90.06
71151;BME280;59071;42.138;24.768;2024-03-07T11:08:39;99851.53;;;8.56;89.94
71151;BME280;59071;42.138;24.768;2024-03-07T11:11:04;99849.16;;;8.83;89.40
71151;BME280;59071;42.138;24.768;2024-03-07T11:13:33;99853.78;;;8.74;90.47
71151;BME280;59071;42.138;24.768;2024-03-07T11:15:59;99839.53;;;8.60;90.56
71151;BME280;59071;42.138;24.768;2024-03-07T11:18:25;99842.31;;;8.73;90.03
71151;BME280;59071;42.138;24.768;2024-03-07T11:20:52;99828.72;;;8.83;89.24
71151;BME280;59071;42.138;24.768;2024-03-07T11:23:27;99830.53;;;8.76;89.71
71151;BME280;59071;42.138;24.768;2024-03-07T11:26:05;99832.69;;;8.51;90.41
71151;BME280;59071;42.138;24.768;2024-03-07T11:28:33;99831.66;;;8.88;89.20
71151;BME280;59071;42.138;24.768;2024-03-07T11:31:12;99825.88;;;9.06;89.32
71151;BME280;59071;42.138;24.768;2024-03-07T11:33:38;99833.03;;;8.84;89.05
71151;BME280;59071;42.138;24.768;2024-03-07T11:36:10;99827.47;;;8.57;90.06
71151;BME280;59071;42.138;24.768;2024-03-07T11:38:37;99819.91;;;8.39;92.40
71151;BME280;59071;42.138;24.768;2024-03-07T11:41:03;99811.31;;;8.37;92.16
71151;BME280;59071;42.138;24.768;2024-03-07T11:43:33;99808.00;;;7.99;93.54
71151;BME280;59071;42.138;24.768;2024-03-07T11:45:59;99798.78;;;8.46;93.92
71151;BME280;59071;42.138;24.768;2024-03-07T11:48:24;99800.81;;;8.44;92.96
71151;BME280;59071;42.138;24.768;2024-03-07T11:50:50;99789.13;;;8.60;93.21
71151;BME280;59071;42.138;24.768;2024-03-07T11:53:16;99780.97;;;8.40;93.85
71151;BME280;59071;42.138;24.768;2024-03-07T11:55:42;99778.50;;;8.02;95.60
71151;BME280;59071;42.138;24.768;2024-03-07T12:00:44;99767.09;;;8.01;96.53
71151;BME280;59071;42.138;24.768;2024-03-07T12:03:13;99760.72;;;8.17;95.98
71151;BME280;59071;42.138;24.768;2024-03-07T12:05:42;99767.69;;;8.40;95.70
71151;BME280;59071;42.138;24.768;2024-03-07T12:08:09;99780.72;;;8.99;92.95
71151;BME280;59071;42.138;24.768;2024-03-07T12:10:36;99785.66;;;8.81;93.45
71151;BME280;59071;42.138;24.768;2024-03-07T12:13:03;99783.31;;;8.50;94.27
71151;BME280;59071;42.138;24.768;2024-03-07T12:15:30;99781.63;;;8.42;94.69
71151;BME280;59071;42.138;24.768;2024-03-07T12:17:57;99782.50;;;8.49;95.46
71151;BME280;59071;42.138;24.768;2024-03-07T12:20:23;99778.63;;;8.30;95.14
71151;BME280;59071;42.138;24.768;2024-03-07T12:23:08;99770.94;;;8.20;95.47
71151;BME280;59071;42.138;24.768;2024-03-07T12:25:37;99771.59;;;7.71;96.16
71151;BME280;59071;42.138;24.768;2024-03-07T12:30:32;99770.50;;;7.36;97.76
71151;BME280;59071;42.138;24.768;2024-03-07T12:33:01;99777.44;;;7.67;99.93
71151;BME280;59071;42.138;24.768;2024-03-07T12:35:32;99780.38;;;8.23;96.26
71151;BME280;59071;42.138;24.768;2024-03-07T12:37:58;99779.03;;;7.97;96.27
71151;BME280;59071;42.138;24.768;2024-03-07T12:40:24;99786.06;;;8.05;95.75
71151;BME280;59071;42.138;24.768;2024-03-07T12:42:54;99775.22;;;7.85;96.78
71151;BME280;59071;42.138;24.768;2024-03-07T12:45:19;99767.50;;;8.05;96.09
71151;BME280;59071;42.138;24.768;2024-03-07T12:47:47;99766.38;;;8.14;95.97
71151;BME280;59071;42.138;24.768;2024-03-07T12:50:19;99773.34;;;8.15;94.93
71151;BME280;59071;42.138;24.768;2024-03-07T12:52:48;99778.84;;;8.50;95.90
71151;BME280;59071;42.138;24.768;2024-03-07T12:55:16;99776.84;;;9.02;92.45
71151;BME280;59071;42.138;24.768;2024-03-07T12:57:49;99777.38;;;9.19;90.60
71151;BME280;59071;42.138;24.768;2024-03-07T13:00:18;99779.59;;;8.66;91.53
71151;BME280;59071;42.138;24.768;2024-03-07T13:02:49;99768.31;;;9.07;91.11
71151;BME280;59071;42.138;24.768;2024-03-07T13:05:14;99776.06;;;8.80;90.84
71151;BME280;59071;42.138;24.768;2024-03-07T13:07:47;99783.31;;;8.50;92.31
71151;BME280;59071;42.138;24.768;2024-03-07T13:10:14;99779.88;;;8.34;94.17